Hillsboro, OR

4:32 PM PST on January 21, 2017 (GMT -0800)
Edwards Meadows | | Change Station

Elev 161 ft 45.50 °N, 122.96 °W | Updated 59 seconds ago

Overcast
Overcast
45.5 °F
Feels Like 46 °F
N
3.0
Wind Variable Wind from South
Gusts 3.0 mph

Today
High -- | Low -- °F
--% Chance of Precip.
Yesterday
High -- | Low -- °F
Precip. -- in
Pressure 29.47 in
Visibility 7.0 miles
Clouds Scattered Clouds 1700 ft
Mostly Cloudy 2800 ft
Overcast 3700 ft
Windchill 46 °F
Dew Point 44 °F
Humidity 95%
Rainfall 0.29 in
Snow Depth Not available.
7:43 AM 5:03 PM
Waning Crescent, 31% visible
METAR KHIO 212353Z 18008KT 7SM SCT017 BKN028 OVC037 08/07 A2947 RMK AO2 RAB04E33 SLP980 P0001 60016 T00780067 10083 20061 53026
Pressure 29.47 in
Visibility 7.0 miles
Clouds Scattered Clouds 1700 ft
Mostly Cloudy 2800 ft
Overcast 3700 ft
Windchill 46 °F
Dew Point 44 °F
Humidity 95%
Rainfall 0.29 in
Snow Depth Not available.
7:43 AM 5:03 PM
Waning Crescent, 31% visible
METAR KHIO 212353Z 18008KT 7SM SCT017 BKN028 OVC037 08/07 A2947 RMK AO2 RAB04E33 SLP980 P0001 60016 T00780067 10083 20061 53026

Get Your Daily Forecast Email!

Thanks for signing up!

Be on the lookout for a verification email in your inbox.

You'll start receiving the daily forecast at 8 AM.

×

10-Day Weather Forecast

Almanac

Astronomy

Jan. 21, 2017 Rise Set
Actual Time
Civil Twilight
Nautical Twilight
Astronomical Twilight
Moon
Length of Visible Light
Length of Day
Tomorrow will be .
, % of the Moon is Illuminated

Today's Extremes

State Highs State Lows

Community

WunderPhotos

Upload Photos

1,962,540 photos uploaded!

WunderBlog® & News

Nearby

Air Quality

  Air Quality AQ Index Pollutant
Not available.

Snow Depth

Station Depth Elevation

Earthquake Activity

City Distance Mag. Time & Date
Minimum magnitude displayed is 2.5.

Coastal Water Temperatures

Place Temperature

Stations

Nearby Weather Stations

Station Location Temp. Windchill Dew Point Humidity Wind Precip. Elev Updated Type
                   

Watches & Warnings

Small Craft for Rough Bar Advisory
Issued: 2:24 PM PST Jan. 21, 2017 – National Weather Service

... Small Craft Advisory for rough bar remains in effect until
3 PM PST Sunday...

* in the Main Channel...

* general seas... 19 feet Saturday afternoon... subsiding to 16
feet late Saturday night through Sunday.

* First Ebb... seas temporarily building to 21 feet with
breakers during the Ebb around 1215 am Sunday.

* Second Ebb... seas temporarily building to 17 feet with breakers
during the Ebb around 1 PM Sunday.

Precautionary/preparedness actions...

A Small Craft Advisory for rough bar means that wave conditions
are expected to be hazardous to small craft in or near Harbor
entrances.